Bow Engineer — LASA7 — position and weather

sailwx.info

Track history (hours):
 
Tides and Currents Weather Stations Pressure Air Temp Water Temp Dewpoint Dewpoint Depression Visibility Wind Speed Wind Dir Waves Ship Positions

Bow Engineer

Last reported at 2018-Jun-17 15:21 UTC. Time now 2018-Jul-19 00:03 UTC.
Position S 24°31' W 046°33'.
Warning: this ship's position is 31 days out of date.

Length 170 m; draft 7.2 m.

MMSI: 258767000.

Date/timePositionNaut miles runAvg speedWind from/ knotsBaromVisibWave heightAir tempDewpointWater temp
2018-Jun-17 15:21S 24°31' W 046°33'513.1
2018-Jun-17 15:00S 24°27' W 046°31'713.2
2018-Jun-17 14:30S 24°21' W 046°28'713.0
2018-Jun-17 14:00S 24°15' W 046°26'713.1
2018-Jun-17 13:30S 24°09' W 046°24'611.7
2018-Jun-17 13:00S 24°03' W 046°22'4 8.8
2018-Jun-17 12:30S 23°60' W 046°19'  
2018-Jun-11 03:47S 23°59' W 046°17'2 8.8
2018-Jun-11 03:30S 24°00' W 046°20'3 6.3
2018-Jun-11 03:00S 24°03' W 046°19'511.0
2018-Jun-11 02:30S 24°05' W 046°14'3 6.9
2018-Jun-11 02:00S 24°08' W 046°11'1 2.5
2018-Jun-11 01:30S 24°09' W 046°10'0 0.0
2018-Jun-11 01:00S 24°09' W 046°10'0 0.0
2018-Jun-11 00:31S 24°09' W 046°10'0 0.0
2018-Jun-10 23:59S 24°09' W 046°10'0 0.0
2018-Jun-10 23:30S 24°09' W 046°10'0 0.0
2018-Jun-10 23:00S 24°09' W 046°10'0 0.0
2018-Jun-10 22:28S 24°09' W 046°10'0 0.0
2018-Jun-10 22:00S 24°09' W 046°10'0 0.0
2018-Jun-10 21:30S 24°09' W 046°10'0 0.0
2018-Jun-10 21:01S 24°09' W 046°10'0 0.0
2018-Jun-10 20:30S 24°09' W 046°10'0 0.0
2018-Jun-10 20:00S 24°09' W 046°10'0 0.0
2018-Jun-10 19:31S 24°09' W 046°10'0 0.0
2018-Jun-10 19:01S 24°09' W 046°10'0 0.0
2018-Jun-10 18:30S 24°09' W 046°10'0 0.0
2018-Jun-10 17:57S 24°09' W 046°10'0 0.0
2018-Jun-10 17:30S 24°09' W 046°10'0 0.0
2018-Jun-10 17:00S 24°09' W 046°10'0 0.0
2018-Jun-10 16:30S 24°09' W 046°10'0 0.0
2018-Jun-10 10:45S 24°09' W 046°10'0 0.0
2018-Jun-10 10:15S 24°09' W 046°10'0 0.0
2018-Jun-10 10:00S 24°09' W 046°10'0 0.0
2018-Jun-10 09:30S 24°09' W 046°10'0 0.0
2018-Jun-10 09:00S 24°09' W 046°10'0 0.0
2018-Jun-10 08:30S 24°09' W 046°10'0 0.0
2018-Jun-10 07:17S 24°09' W 046°10'0 0.0
2018-Jun-10 06:53S 24°09' W 046°10'0 0.0
2018-Jun-10 06:24S 24°09' W 046°10'0 0.1
2018-Jun-10 05:58S 24°09' W 046°10'0 0.0
2018-Jun-10 05:29S 24°09' W 046°10'0 0.0
2018-Jun-10 04:58S 24°09' W 046°10'0 0.0
2018-Jun-10 01:43S 24°09' W 046°10'0 0.1
2018-Jun-10 01:30S 24°09' W 046°10'0 0.0
2018-Jun-10 01:00S 24°09' W 046°10'0 0.0
2018-Jun-10 00:30S 24°09' W 046°10'0 0.0
2018-Jun-09 23:53S 24°09' W 046°10'0 0.0
2018-Jun-09 22:06S 24°09' W 046°10'0 0.0
2018-Jun-09 21:14S 24°09' W 046°10'0 0.0
2018-Jun-09 20:47S 24°09' W 046°10'0 0.0
2018-Jun-09 19:22S 24°09' W 046°10'0 0.0
2018-Jun-09 19:00S 24°09' W 046°10'0 0.0
2018-Jun-09 18:27S 24°09' W 046°10'0 0.0
2018-Jun-09 17:54S 24°09' W 046°10'0 0.0
2018-Jun-09 17:30S 24°09' W 046°10'0 0.0
2018-Jun-09 17:00S 24°09' W 046°10'0 0.0
2018-Jun-09 16:30S 24°09' W 046°10'0 0.0
2018-Jun-09 15:59S 24°09' W 046°10'0 0.0
2018-Jun-09 15:29S 24°09' W 046°10'0 0.0
2018-Jun-09 14:21S 24°09' W 046°10'0 0.1
2018-Jun-09 13:58S 24°09' W 046°10'0 0.0
2018-Jun-09 12:57S 24°09' W 046°10'0 0.0
2018-Jun-09 12:10S 24°09' W 046°10'0 0.0
2018-Jun-09 11:53S 24°09' W 046°10'0 0.0
2018-Jun-09 11:09S 24°09' W 046°10'0 0.0
2018-Jun-09 11:00S 24°09' W 046°10'0 0.1
2018-Jun-09 10:25S 24°09' W 046°10'0 0.0
2018-Jun-09 10:00S 24°09' W 046°10'0 0.0
2018-Jun-09 09:30S 24°09' W 046°10'0 0.0
2018-Jun-09 08:54S 24°09' W 046°10'0 0.0
2018-Jun-09 08:22S 24°09' W 046°10'0 0.0
2018-Jun-09 08:00S 24°09' W 046°10'0 0.0
2018-Jun-09 07:29S 24°09' W 046°10'0 0.0
2018-Jun-09 06:59S 24°09' W 046°10'0 0.0
2018-Jun-09 06:27S 24°09' W 046°10'0 0.0
2018-Jun-09 06:00S 24°09' W 046°10'0 0.0
2018-Jun-09 05:26S 24°09' W 046°10'0 0.0
2018-Jun-09 05:00S 24°09' W 046°10'0 0.0
2018-Jun-09 04:30S 24°09' W 046°10'0 0.0
2018-Jun-09 04:00S 24°09' W 046°10'0 0.1
2018-Jun-09 03:30S 24°09' W 046°10'0 0.0
2018-Jun-09 03:00S 24°09' W 046°10'0 0.0
2018-Jun-09 02:26S 24°09' W 046°10'0 0.0
2018-Jun-09 02:00S 24°09' W 046°10'0 0.0
2018-Jun-09 01:28S 24°09' W 046°10'0 0.0
2018-Jun-09 01:00S 24°09' W 046°10'0 0.0
2018-Jun-09 00:28S 24°09' W 046°10'0 0.0
2018-Jun-08 23:58S 24°09' W 046°10'0 0.0
2018-Jun-08 23:22S 24°09' W 046°10'0 0.0
2018-Jun-08 22:53S 24°09' W 046°10'0 0.0
2018-Jun-08 22:27S 24°09' W 046°10'0 0.0
2018-Jun-08 21:59S 24°09' W 046°10'0 0.0
2018-Jun-08 21:30S 24°09' W 046°10'0 0.0
2018-Jun-08 20:44S 24°09' W 046°10'0 0.0
2018-Jun-08 20:30S 24°09' W 046°10'0 0.0
2018-Jun-08 19:58S 24°09' W 046°10'0 0.0
2018-Jun-08 19:30S 24°09' W 046°10'0 0.0
2018-Jun-08 19:00S 24°09' W 046°10'0 0.0
2018-Jun-08 18:29S 24°09' W 046°10'0 0.0
2018-Jun-08 18:00S 24°09' W 046°10'0 0.0
2018-Jun-08 17:15S 24°09' W 046°10'0 0.1
2018-Jun-08 17:00S 24°09' W 046°10'0 0.0
2018-Jun-08 16:30S 24°09' W 046°10'0 0.0
2018-Jun-08 15:57S 24°09' W 046°10'0 0.0
2018-Jun-08 15:30S 24°09' W 046°10'0 0.0
2018-Jun-08 15:00S 24°09' W 046°10'0 0.0
2018-Jun-08 14:30S 24°09' W 046°10'0 0.0
2018-Jun-08 14:00S 24°09' W 046°10'0 0.0
2018-Jun-08 13:27S 24°09' W 046°10'0 0.0
2018-Jun-08 13:00S 24°09' W 046°10'0 0.0
2018-Jun-08 12:29S 24°09' W 046°10'0 0.0
2018-Jun-08 12:00S 24°09' W 046°10'0 0.0
2018-Jun-08 11:31S 24°09' W 046°10'0 0.0
2018-Jun-08 11:00S 24°09' W 046°10'0 0.0
2018-Jun-08 10:29S 24°09' W 046°10'0 0.0
2018-Jun-08 10:00S 24°09' W 046°10'0 0.0
2018-Jun-08 09:30S 24°09' W 046°10'0 0.0
2018-Jun-08 08:59S 24°09' W 046°10'0 0.0
2018-Jun-08 08:30S 24°09' W 046°10'0 0.0
2018-Jun-08 08:00S 24°09' W 046°10'0 0.0
2018-Jun-08 07:29S 24°09' W 046°10'0 0.0
2018-Jun-08 07:00S 24°09' W 046°10'0 0.0
2018-Jun-08 06:29S 24°09' W 046°10'0 0.0
2018-Jun-08 06:00S 24°09' W 046°10'0 0.0
2018-Jun-08 05:29S 24°09' W 046°10'0 0.0
2018-Jun-08 05:00S 24°09' W 046°10'0 0.0
2018-Jun-08 04:30S 24°09' W 046°10'0 0.0
2018-Jun-08 04:00S 24°09' W 046°10'0 0.0
2018-Jun-08 03:31S 24°09' W 046°10'0 0.0
2018-Jun-08 03:01S 24°09' W 046°10'0 0.0
2018-Jun-08 02:31S 24°09' W 046°10'0 0.0
2018-Jun-08 02:00S 24°09' W 046°10'0 0.0
2018-Jun-08 01:29S 24°09' W 046°10'0 0.1
2018-Jun-08 01:00S 24°09' W 046°10'0 0.0
2018-Jun-08 00:30S 24°09' W 046°10'0 0.0
2018-Jun-08 00:00S 24°09' W 046°10'0 0.0
2018-Jun-07 23:30S 24°09' W 046°10'0 0.0
2018-Jun-07 23:00S 24°09' W 046°10'0 0.0
2018-Jun-07 22:30S 24°09' W 046°10'0 0.0
2018-Jun-07 22:00S 24°09' W 046°10'0 0.0
2018-Jun-07 21:30S 24°09' W 046°10'0 0.0
2018-Jun-07 21:00S 24°09' W 046°10'0 0.0
2018-Jun-07 20:29S 24°09' W 046°10'0 0.0
2018-Jun-07 20:00S 24°09' W 046°10'0 0.0
2018-Jun-07 19:30S 24°09' W 046°10'0 0.0
2018-Jun-07 19:00S 24°09' W 046°10'0 0.0
2018-Jun-07 18:30S 24°09' W 046°10'0 0.0
2018-Jun-07 18:00S 24°09' W 046°10'0 0.0
2018-Jun-07 17:28S 24°09' W 046°10'0 0.0
2018-Jun-07 16:59S 24°09' W 046°10'0 0.0
2018-Jun-07 16:30S 24°09' W 046°10'0 0.0
2018-Jun-07 16:00S 24°09' W 046°10'0 0.0
2018-Jun-07 15:30S 24°09' W 046°10'  
Track history (hours):
 
Tides and Currents Weather Stations Pressure Air Temp Water Temp Dewpoint Dewpoint Depression Visibility Wind Speed Wind Dir Waves Ship Positions

Bow Engineer

Last reported at 2018-Jun-17 15:21 UTC. Time now 2018-Jul-19 00:03 UTC.
Position S 24°31' W 046°33'.
Warning: this ship's position is 31 days out of date.

Length 170 m; draft 7.2 m.

MMSI: 258767000.

Date/timePositionNaut miles runAvg speedWind from/ knotsBaromVisibWave heightAir tempDewpointWater temp
2018-Jun-17 15:21S 24°31' W 046°33'513.1
2018-Jun-17 15:00S 24°27' W 046°31'713.2
2018-Jun-17 14:30S 24°21' W 046°28'713.0
2018-Jun-17 14:00S 24°15' W 046°26'713.1
2018-Jun-17 13:30S 24°09' W 046°24'611.7
2018-Jun-17 13:00S 24°03' W 046°22'4 8.8
2018-Jun-17 12:30S 23°60' W 046°19'  
2018-Jun-11 03:47S 23°59' W 046°17'2 8.8
2018-Jun-11 03:30S 24°00' W 046°20'3 6.3
2018-Jun-11 03:00S 24°03' W 046°19'511.0
2018-Jun-11 02:30S 24°05' W 046°14'3 6.9
2018-Jun-11 02:00S 24°08' W 046°11'1 2.5
2018-Jun-11 01:30S 24°09' W 046°10'0 0.0
2018-Jun-11 01:00S 24°09' W 046°10'0 0.0
2018-Jun-11 00:31S 24°09' W 046°10'0 0.0
2018-Jun-10 23:59S 24°09' W 046°10'0 0.0
2018-Jun-10 23:30S 24°09' W 046°10'0 0.0
2018-Jun-10 23:00S 24°09' W 046°10'0 0.0
2018-Jun-10 22:28S 24°09' W 046°10'0 0.0
2018-Jun-10 22:00S 24°09' W 046°10'0 0.0
2018-Jun-10 21:30S 24°09' W 046°10'0 0.0
2018-Jun-10 21:01S 24°09' W 046°10'0 0.0
2018-Jun-10 20:30S 24°09' W 046°10'0 0.0
2018-Jun-10 20:00S 24°09' W 046°10'0 0.0
2018-Jun-10 19:31S 24°09' W 046°10'0 0.0
2018-Jun-10 19:01S 24°09' W 046°10'0 0.0
2018-Jun-10 18:30S 24°09' W 046°10'0 0.0
2018-Jun-10 17:57S 24°09' W 046°10'0 0.0
2018-Jun-10 17:30S 24°09' W 046°10'0 0.0
2018-Jun-10 17:00S 24°09' W 046°10'0 0.0
2018-Jun-10 16:30S 24°09' W 046°10'0 0.0
2018-Jun-10 10:45S 24°09' W 046°10'0 0.0
2018-Jun-10 10:15S 24°09' W 046°10'0 0.0
2018-Jun-10 10:00S 24°09' W 046°10'0 0.0
2018-Jun-10 09:30S 24°09' W 046°10'0 0.0
2018-Jun-10 09:00S 24°09' W 046°10'0 0.0
2018-Jun-10 08:30S 24°09' W 046°10'0 0.0
2018-Jun-10 07:17S 24°09' W 046°10'0 0.0
2018-Jun-10 06:53S 24°09' W 046°10'0 0.0
2018-Jun-10 06:24S 24°09' W 046°10'0 0.1
2018-Jun-10 05:58S 24°09' W 046°10'0 0.0
2018-Jun-10 05:29S 24°09' W 046°10'0 0.0
2018-Jun-10 04:58S 24°09' W 046°10'0 0.0
2018-Jun-10 01:43S 24°09' W 046°10'0 0.1
2018-Jun-10 01:30S 24°09' W 046°10'0 0.0
2018-Jun-10 01:00S 24°09' W 046°10'0 0.0
2018-Jun-10 00:30S 24°09' W 046°10'0 0.0
2018-Jun-09 23:53S 24°09' W 046°10'0 0.0
2018-Jun-09 22:06S 24°09' W 046°10'0 0.0
2018-Jun-09 21:14S 24°09' W 046°10'0 0.0
2018-Jun-09 20:47S 24°09' W 046°10'0 0.0
2018-Jun-09 19:22S 24°09' W 046°10'0 0.0
2018-Jun-09 19:00S 24°09' W 046°10'0 0.0
2018-Jun-09 18:27S 24°09' W 046°10'0 0.0
2018-Jun-09 17:54S 24°09' W 046°10'0 0.0
2018-Jun-09 17:30S 24°09' W 046°10'0 0.0
2018-Jun-09 17:00S 24°09' W 046°10'0 0.0
2018-Jun-09 16:30S 24°09' W 046°10'0 0.0
2018-Jun-09 15:59S 24°09' W 046°10'0 0.0
2018-Jun-09 15:29S 24°09' W 046°10'0 0.0
2018-Jun-09 14:21S 24°09' W 046°10'0 0.1
2018-Jun-09 13:58S 24°09' W 046°10'0 0.0
2018-Jun-09 12:57S 24°09' W 046°10'0 0.0
2018-Jun-09 12:10S 24°09' W 046°10'0 0.0
2018-Jun-09 11:53S 24°09' W 046°10'0 0.0
2018-Jun-09 11:09S 24°09' W 046°10'0 0.0
2018-Jun-09 11:00S 24°09' W 046°10'0 0.1
2018-Jun-09 10:25S 24°09' W 046°10'0 0.0
2018-Jun-09 10:00S 24°09' W 046°10'0 0.0
2018-Jun-09 09:30S 24°09' W 046°10'0 0.0
2018-Jun-09 08:54S 24°09' W 046°10'0 0.0
2018-Jun-09 08:22S 24°09' W 046°10'0 0.0
2018-Jun-09 08:00S 24°09' W 046°10'0 0.0
2018-Jun-09 07:29S 24°09' W 046°10'0 0.0
2018-Jun-09 06:59S 24°09' W 046°10'0 0.0
2018-Jun-09 06:27S 24°09' W 046°10'0 0.0
2018-Jun-09 06:00S 24°09' W 046°10'0 0.0
2018-Jun-09 05:26S 24°09' W 046°10'0 0.0
2018-Jun-09 05:00S 24°09' W 046°10'0 0.0
2018-Jun-09 04:30S 24°09' W 046°10'0 0.0
2018-Jun-09 04:00S 24°09' W 046°10'0 0.1
2018-Jun-09 03:30S 24°09' W 046°10'0 0.0
2018-Jun-09 03:00S 24°09' W 046°10'0 0.0
2018-Jun-09 02:26S 24°09' W 046°10'0 0.0
2018-Jun-09 02:00S 24°09' W 046°10'0 0.0
2018-Jun-09 01:28S 24°09' W 046°10'0 0.0
2018-Jun-09 01:00S 24°09' W 046°10'0 0.0
2018-Jun-09 00:28S 24°09' W 046°10'0 0.0
2018-Jun-08 23:58S 24°09' W 046°10'0 0.0
2018-Jun-08 23:22S 24°09' W 046°10'0 0.0
2018-Jun-08 22:53S 24°09' W 046°10'0 0.0
2018-Jun-08 22:27S 24°09' W 046°10'0 0.0
2018-Jun-08 21:59S 24°09' W 046°10'0 0.0
2018-Jun-08 21:30S 24°09' W 046°10'0 0.0
2018-Jun-08 20:44S 24°09' W 046°10'0 0.0
2018-Jun-08 20:30S 24°09' W 046°10'0 0.0
2018-Jun-08 19:58S 24°09' W 046°10'0 0.0
2018-Jun-08 19:30S 24°09' W 046°10'0 0.0
2018-Jun-08 19:00S 24°09' W 046°10'0 0.0
2018-Jun-08 18:29S 24°09' W 046°10'0 0.0
2018-Jun-08 18:00S 24°09' W 046°10'0 0.0
2018-Jun-08 17:15S 24°09' W 046°10'0 0.1
2018-Jun-08 17:00S 24°09' W 046°10'0 0.0
2018-Jun-08 16:30S 24°09' W 046°10'0 0.0
2018-Jun-08 15:57S 24°09' W 046°10'0 0.0
2018-Jun-08 15:30S 24°09' W 046°10'0 0.0
2018-Jun-08 15:00S 24°09' W 046°10'0 0.0
2018-Jun-08 14:30S 24°09' W 046°10'0 0.0
2018-Jun-08 14:00S 24°09' W 046°10'0 0.0
2018-Jun-08 13:27S 24°09' W 046°10'0 0.0
2018-Jun-08 13:00S 24°09' W 046°10'0 0.0
2018-Jun-08 12:29S 24°09' W 046°10'0 0.0
2018-Jun-08 12:00S 24°09' W 046°10'0 0.0
2018-Jun-08 11:31S 24°09' W 046°10'0 0.0
2018-Jun-08 11:00S 24°09' W 046°10'0 0.0
2018-Jun-08 10:29S 24°09' W 046°10'0 0.0
2018-Jun-08 10:00S 24°09' W 046°10'0 0.0
2018-Jun-08 09:30S 24°09' W 046°10'0 0.0
2018-Jun-08 08:59S 24°09' W 046°10'0 0.0
2018-Jun-08 08:30S 24°09' W 046°10'0 0.0
2018-Jun-08 08:00S 24°09' W 046°10'0 0.0
2018-Jun-08 07:29S 24°09' W 046°10'0 0.0
2018-Jun-08 07:00S 24°09' W 046°10'0 0.0
2018-Jun-08 06:29S 24°09' W 046°10'0 0.0
2018-Jun-08 06:00S 24°09' W 046°10'0 0.0
2018-Jun-08 05:29S 24°09' W 046°10'0 0.0
2018-Jun-08 05:00S 24°09' W 046°10'0 0.0
2018-Jun-08 04:30S 24°09' W 046°10'0 0.0
2018-Jun-08 04:00S 24°09' W 046°10'0 0.0
2018-Jun-08 03:31S 24°09' W 046°10'0 0.0
2018-Jun-08 03:01S 24°09' W 046°10'0 0.0
2018-Jun-08 02:31S 24°09' W 046°10'0 0.0
2018-Jun-08 02:00S 24°09' W 046°10'0 0.0
2018-Jun-08 01:29S 24°09' W 046°10'0 0.1
2018-Jun-08 01:00S 24°09' W 046°10'0 0.0
2018-Jun-08 00:30S 24°09' W 046°10'0 0.0
2018-Jun-08 00:00S 24°09' W 046°10'0 0.0
2018-Jun-07 23:30S 24°09' W 046°10'0 0.0
2018-Jun-07 23:00S 24°09' W 046°10'0 0.0
2018-Jun-07 22:30S 24°09' W 046°10'0 0.0
2018-Jun-07 22:00S 24°09' W 046°10'0 0.0
2018-Jun-07 21:30S 24°09' W 046°10'0 0.0
2018-Jun-07 21:00S 24°09' W 046°10'0 0.0
2018-Jun-07 20:29S 24°09' W 046°10'0 0.0
2018-Jun-07 20:00S 24°09' W 046°10'0 0.0
2018-Jun-07 19:30S 24°09' W 046°10'0 0.0
2018-Jun-07 19:00S 24°09' W 046°10'0 0.0
2018-Jun-07 18:30S 24°09' W 046°10'0 0.0
2018-Jun-07 18:00S 24°09' W 046°10'0 0.0
2018-Jun-07 17:28S 24°09' W 046°10'0 0.0
2018-Jun-07 16:59S 24°09' W 046°10'0 0.0
2018-Jun-07 16:30S 24°09' W 046°10'0 0.0
2018-Jun-07 16:00S 24°09' W 046°10'0 0.0
2018-Jun-07 15:30S 24°09' W 046°10'  

Dump ship's entire track history